sensor_id;sensor_type;location;lat;lon;timestamp;temperature;humidity
69393;SHT31;56582;44.624;20.378;2023-04-09T00:01:10;6.44;81.76
69393;SHT31;56582;44.624;20.378;2023-04-09T00:03:36;6.48;81.95
69393;SHT31;56582;44.624;20.378;2023-04-09T00:06:05;6.36;82.25
69393;SHT31;56582;44.624;20.378;2023-04-09T00:08:31;6.07;83.19
69393;SHT31;56582;44.624;20.378;2023-04-09T00:10:57;6.05;83.73
69393;SHT31;56582;44.624;20.378;2023-04-09T00:13:23;5.96;84.11
69393;SHT31;56582;44.624;20.378;2023-04-09T00:15:48;5.97;84.04
69393;SHT31;56582;44.624;20.378;2023-04-09T00:18:14;6.09;83.74
69393;SHT31;56582;44.624;20.378;2023-04-09T00:20:42;6.05;83.59
69393;SHT31;56582;44.624;20.378;2023-04-09T00:23:08;6.14;83.53
69393;SHT31;56582;44.624;20.378;2023-04-09T00:25:33;6.20;83.37
69393;SHT31;56582;44.624;20.378;2023-04-09T00:27:59;6.23;83.09
69393;SHT31;56582;44.624;20.378;2023-04-09T00:30:27;6.31;82.53
69393;SHT31;56582;44.624;20.378;2023-04-09T00:32:52;6.26;82.36
69393;SHT31;56582;44.624;20.378;2023-04-09T00:35:18;6.30;82.56
69393;SHT31;56582;44.624;20.378;2023-04-09T00:37:43;6.24;82.84
69393;SHT31;56582;44.624;20.378;2023-04-09T00:40:09;6.40;82.60
69393;SHT31;56582;44.624;20.378;2023-04-09T00:42:35;6.24;82.64
69393;SHT31;56582;44.624;20.378;2023-04-09T00:45:02;6.07;82.84
69393;SHT31;56582;44.624;20.378;2023-04-09T00:47:28;6.16;82.59
69393;SHT31;56582;44.624;20.378;2023-04-09T00:49:55;6.10;82.68
69393;SHT31;56582;44.624;20.378;2023-04-09T00:52:21;6.05;82.97
69393;SHT31;56582;44.624;20.378;2023-04-09T00:54:48;6.09;82.43
69393;SHT31;56582;44.624;20.378;2023-04-09T00:57:14;6.16;82.59
69393;SHT31;56582;44.624;20.378;2023-04-09T00:59:41;6.21;82.22
69393;SHT31;56582;44.624;20.378;2023-04-09T01:02:07;6.21;82.79
69393;SHT31;56582;44.624;20.378;2023-04-09T01:04:33;5.90;83.36
69393;SHT31;56582;44.624;20.378;2023-04-09T01:07:06;5.86;84.07
69393;SHT31;56582;44.624;20.378;2023-04-09T01:09:40;5.80;84.40
69393;SHT31;56582;44.624;20.378;2023-04-09T01:12:18;5.97;84.23
69393;SHT31;56582;44.624;20.378;2023-04-09T01:15:09;6.06;83.60
69393;SHT31;56582;44.624;20.378;2023-04-09T01:20:18;5.97;84.18
69393;SHT31;56582;44.624;20.378;2023-04-09T01:28:19;5.89;84.56
69393;SHT31;56582;44.624;20.378;2023-04-09T01:30:52;5.79;85.12
69393;SHT31;56582;44.624;20.378;2023-04-09T01:33:21;5.62;85.82
69393;SHT31;56582;44.624;20.378;2023-04-09T01:35:49;5.58;86.11
69393;SHT31;56582;44.624;20.378;2023-04-09T01:38:17;5.56;86.12
69393;SHT31;56582;44.624;20.378;2023-04-09T01:40:44;5.52;86.73
69393;SHT31;56582;44.624;20.378;2023-04-09T01:43:10;5.48;87.36
69393;SHT31;56582;44.624;20.378;2023-04-09T01:45:37;5.47;87.97
69393;SHT31;56582;44.624;20.378;2023-04-09T01:48:03;5.42;88.24
69393;SHT31;56582;44.624;20.378;2023-04-09T01:50:29;5.45;88.01
69393;SHT31;56582;44.624;20.378;2023-04-09T01:52:56;5.44;87.94
69393;SHT31;56582;44.624;20.378;2023-04-09T01:55:22;5.42;87.91
69393;SHT31;56582;44.624;20.378;2023-04-09T01:57:47;5.45;87.90
69393;SHT31;56582;44.624;20.378;2023-04-09T02:00:13;5.39;88.17
69393;SHT31;56582;44.624;20.378;2023-04-09T02:02:56;5.35;88.37
69393;SHT31;56582;44.624;20.378;2023-04-09T02:05:28;5.32;88.55
69393;SHT31;56582;44.624;20.378;2023-04-09T02:07:59;5.31;88.53
69393;SHT31;56582;44.624;20.378;2023-04-09T02:10:26;5.24;89.03
69393;SHT31;56582;44.624;20.378;2023-04-09T02:12:54;5.23;89.29
69393;SHT31;56582;44.624;20.378;2023-04-09T02:15:20;5.26;89.06
69393;SHT31;56582;44.624;20.378;2023-04-09T02:17:46;5.32;88.71
69393;SHT31;56582;44.624;20.378;2023-04-09T02:20:18;5.56;88.03
69393;SHT31;56582;44.624;20.378;2023-04-09T02:22:44;5.44;88.07
69393;SHT31;56582;44.624;20.378;2023-04-09T02:25:13;5.41;88.42
69393;SHT31;56582;44.624;20.378;2023-04-09T02:27:49;5.45;88.32
69393;SHT31;56582;44.624;20.378;2023-04-09T02:30:15;5.39;88.37
69393;SHT31;56582;44.624;20.378;2023-04-09T02:32:40;5.48;88.57
69393;SHT31;56582;44.624;20.378;2023-04-09T02:35:06;5.60;88.15
69393;SHT31;56582;44.624;20.378;2023-04-09T02:37:31;5.72;87.75
69393;SHT31;56582;44.624;20.378;2023-04-09T02:39:57;5.87;87.34
69393;SHT31;56582;44.624;20.378;2023-04-09T02:42:22;5.99;86.88
69393;SHT31;56582;44.624;20.378;2023-04-09T02:44:48;5.93;86.70
69393;SHT31;56582;44.624;20.378;2023-04-09T02:47:13;5.95;86.47
69393;SHT31;56582;44.624;20.378;2023-04-09T02:49:39;5.72;87.27
69393;SHT31;56582;44.624;20.378;2023-04-09T02:52:04;5.65;87.56
69393;SHT31;56582;44.624;20.378;2023-04-09T02:54:29;5.56;88.02
69393;SHT31;56582;44.624;20.378;2023-04-09T02:56:55;5.58;87.98
69393;SHT31;56582;44.624;20.378;2023-04-09T02:59:20;5.55;88.16
69393;SHT31;56582;44.624;20.378;2023-04-09T03:01:46;5.52;88.20
69393;SHT31;56582;44.624;20.378;2023-04-09T03:04:11;5.52;88.12
69393;SHT31;56582;44.624;20.378;2023-04-09T03:06:37;5.58;87.89
69393;SHT31;56582;44.624;20.378;2023-04-09T03:09:02;5.73;87.64
69393;SHT31;56582;44.624;20.378;2023-04-09T03:11:28;5.86;87.03
69393;SHT31;56582;44.624;20.378;2023-04-09T03:13:56;6.03;86.19
69393;SHT31;56582;44.624;20.378;2023-04-09T03:16:24;6.03;85.96
69393;SHT31;56582;44.624;20.378;2023-04-09T03:18:50;5.79;86.47
69393;SHT31;56582;44.624;20.378;2023-04-09T03:21:15;5.78;86.82
69393;SHT31;56582;44.624;20.378;2023-04-09T03:23:40;5.96;86.07
69393;SHT31;56582;44.624;20.378;2023-04-09T03:26:06;5.92;85.78
69393;SHT31;56582;44.624;20.378;2023-04-09T03:28:31;5.93;85.72
69393;SHT31;56582;44.624;20.378;2023-04-09T03:30:57;5.92;85.69
69393;SHT31;56582;44.624;20.378;2023-04-09T03:33:23;5.99;85.60
69393;SHT31;56582;44.624;20.378;2023-04-09T03:35:49;5.93;85.08
69393;SHT31;56582;44.624;20.378;2023-04-09T03:38:15;5.99;85.04
69393;SHT31;56582;44.624;20.378;2023-04-09T03:40:40;5.92;84.90
69393;SHT31;56582;44.624;20.378;2023-04-09T03:43:07;5.87;84.54
69393;SHT31;56582;44.624;20.378;2023-04-09T03:45:32;5.56;85.26
69393;SHT31;56582;44.624;20.378;2023-04-09T03:47:57;5.56;87.33
69393;SHT31;56582;44.624;20.378;2023-04-09T03:50:23;5.86;88.07
69393;SHT31;56582;44.624;20.378;2023-04-09T03:52:48;5.75;85.65
69393;SHT31;56582;44.624;20.378;2023-04-09T03:55:14;5.51;84.65
69393;SHT31;56582;44.624;20.378;2023-04-09T03:57:39;5.23;85.02
69393;SHT31;56582;44.624;20.378;2023-04-09T04:00:05;5.11;87.03
69393;SHT31;56582;44.624;20.378;2023-04-09T04:02:31;5.00;87.55
69393;SHT31;56582;44.624;20.378;2023-04-09T04:05:01;4.80;88.06
69393;SHT31;56582;44.624;20.378;2023-04-09T04:07:26;4.70;88.61
69393;SHT31;56582;44.624;20.378;2023-04-09T04:09:51;4.55;88.64
69393;SHT31;56582;44.624;20.378;2023-04-09T04:12:17;4.38;88.68
69393;SHT31;56582;44.624;20.378;2023-04-09T04:14:43;4.22;88.95
69393;SHT31;56582;44.624;20.378;2023-04-09T04:17:09;4.52;91.33
69393;SHT31;56582;44.624;20.378;2023-04-09T04:19:35;4.63;88.90
69393;SHT31;56582;44.624;20.378;2023-04-09T04:22:00;4.56;88.47
69393;SHT31;56582;44.624;20.378;2023-04-09T04:24:25;4.56;88.45
69393;SHT31;56582;44.624;20.378;2023-04-09T04:26:51;4.44;89.09
69393;SHT31;56582;44.624;20.378;2023-04-09T04:29:16;4.20;90.11
69393;SHT31;56582;44.624;20.378;2023-04-09T04:31:42;4.12;90.11
69393;SHT31;56582;44.624;20.378;2023-04-09T04:34:07;4.12;90.38
69393;SHT31;56582;44.624;20.378;2023-04-09T04:36:33;4.29;89.79
69393;SHT31;56582;44.624;20.378;2023-04-09T04:38:58;4.45;89.32
69393;SHT31;56582;44.624;20.378;2023-04-09T04:41:23;4.62;88.80
69393;SHT31;56582;44.624;20.378;2023-04-09T04:43:49;4.59;88.00
69393;SHT31;56582;44.624;20.378;2023-04-09T04:46:15;4.81;87.23
69393;SHT31;56582;44.624;20.378;2023-04-09T04:48:40;4.87;86.64
69393;SHT31;56582;44.624;20.378;2023-04-09T04:51:06;4.93;86.80
69393;SHT31;56582;44.624;20.378;2023-04-09T04:53:31;4.75;88.05
69393;SHT31;56582;44.624;20.378;2023-04-09T04:55:56;5.65;94.74
69393;SHT31;56582;44.624;20.378;2023-04-09T04:58:23;6.65;96.42
69393;SHT31;56582;44.624;20.378;2023-04-09T05:00:49;7.64;96.77
69393;SHT31;56582;44.624;20.378;2023-04-09T05:03:15;8.37;95.83
69393;SHT31;56582;44.624;20.378;2023-04-09T05:05:40;9.19;94.00
69393;SHT31;56582;44.624;20.378;2023-04-09T05:08:06;9.52;91.05
69393;SHT31;56582;44.624;20.378;2023-04-09T05:10:31;9.52;90.55
69393;SHT31;56582;44.624;20.378;2023-04-09T05:12:57;9.23;89.31
69393;SHT31;56582;44.624;20.378;2023-04-09T05:15:22;9.00;85.84
69393;SHT31;56582;44.624;20.378;2023-04-09T05:17:48;8.57;88.02
69393;SHT31;56582;44.624;20.378;2023-04-09T05:20:14;8.57;88.93
69393;SHT31;56582;44.624;20.378;2023-04-09T05:22:39;9.47;92.45
69393;SHT31;56582;44.624;20.378;2023-04-09T05:25:05;8.06;80.58
69393;SHT31;56582;44.624;20.378;2023-04-09T05:27:31;6.74;79.92
69393;SHT31;56582;44.624;20.378;2023-04-09T05:29:56;5.35;83.98
69393;SHT31;56582;44.624;20.378;2023-04-09T05:32:22;4.77;86.68
69393;SHT31;56582;44.624;20.378;2023-04-09T05:34:47;4.63;86.93
69393;SHT31;56582;44.624;20.378;2023-04-09T05:37:13;4.65;87.61
69393;SHT31;56582;44.624;20.378;2023-04-09T05:39:38;4.21;88.75
69393;SHT31;56582;44.624;20.378;2023-04-09T05:42:04;4.08;89.87
69393;SHT31;56582;44.624;20.378;2023-04-09T05:44:29;4.32;89.51
69393;SHT31;56582;44.624;20.378;2023-04-09T05:46:55;4.41;88.50
69393;SHT31;56582;44.624;20.378;2023-04-09T05:49:20;4.29;90.01
69393;SHT31;56582;44.624;20.378;2023-04-09T05:51:46;4.18;91.07
69393;SHT31;56582;44.624;20.378;2023-04-09T05:54:11;4.42;90.55
69393;SHT31;56582;44.624;20.378;2023-04-09T05:56:37;4.31;90.94
69393;SHT31;56582;44.624;20.378;2023-04-09T05:59:02;4.25;91.63
69393;SHT31;56582;44.624;20.378;2023-04-09T06:01:28;4.20;91.50
69393;SHT31;56582;44.624;20.378;2023-04-09T06:03:54;4.22;92.18
69393;SHT31;56582;44.624;20.378;2023-04-09T06:06:19;4.32;92.34
69393;SHT31;56582;44.624;20.378;2023-04-09T06:08:45;4.34;91.52
69393;SHT31;56582;44.624;20.378;2023-04-09T06:11:11;4.53;91.32
69393;SHT31;56582;44.624;20.378;2023-04-09T06:13:37;4.87;90.83
69393;SHT31;56582;44.624;20.378;2023-04-09T06:16:04;4.86;90.48
69393;SHT31;56582;44.624;20.378;2023-04-09T06:18:30;4.83;90.77
69393;SHT31;56582;44.624;20.378;2023-04-09T06:21:06;4.79;91.10
69393;SHT31;56582;44.624;20.378;2023-04-09T06:23:33;4.76;90.82
69393;SHT31;56582;44.624;20.378;2023-04-09T06:25:59;4.90;90.98
69393;SHT31;56582;44.624;20.378;2023-04-09T06:28:26;4.94;91.12
69393;SHT31;56582;44.624;20.378;2023-04-09T06:30:52;5.04;91.27
69393;SHT31;56582;44.624;20.378;2023-04-09T06:33:18;5.27;91.23
69393;SHT31;56582;44.624;20.378;2023-04-09T06:35:44;5.30;91.58
69393;SHT31;56582;44.624;20.378;2023-04-09T06:38:10;5.34;91.08
69393;SHT31;56582;44.624;20.378;2023-04-09T06:40:38;5.55;89.90
69393;SHT31;56582;44.624;20.378;2023-04-09T06:43:05;5.80;90.91
69393;SHT31;56582;44.624;20.378;2023-04-09T06:45:30;6.07;90.87
69393;SHT31;56582;44.624;20.378;2023-04-09T06:47:57;5.92;89.88
69393;SHT31;56582;44.624;20.378;2023-04-09T06:50:22;5.86;90.28
69393;SHT31;56582;44.624;20.378;2023-04-09T06:52:48;5.79;89.34
69393;SHT31;56582;44.624;20.378;2023-04-09T06:55:13;5.76;90.09
69393;SHT31;56582;44.624;20.378;2023-04-09T06:57:39;5.78;90.02
69393;SHT31;56582;44.624;20.378;2023-04-09T07:00:06;5.80;90.32
69393;SHT31;56582;44.624;20.378;2023-04-09T07:02:32;5.90;90.71
69393;SHT31;56582;44.624;20.378;2023-04-09T07:04:58;5.85;90.37
69393;SHT31;56582;44.624;20.378;2023-04-09T07:07:24;5.83;90.26
69393;SHT31;56582;44.624;20.378;2023-04-09T07:09:51;5.83;90.68
69393;SHT31;56582;44.624;20.378;2023-04-09T07:14:52;6.38;89.66
69393;SHT31;56582;44.624;20.378;2023-04-09T07:17:17;6.61;88.07
69393;SHT31;56582;44.624;20.378;2023-04-09T07:19:42;6.78;87.29
69393;SHT31;56582;44.624;20.378;2023-04-09T07:22:08;6.99;87.09
69393;SHT31;56582;44.624;20.378;2023-04-09T07:24:33;6.97;86.97
69393;SHT31;56582;44.624;20.378;2023-04-09T07:27:02;7.40;87.42
69393;SHT31;56582;44.624;20.378;2023-04-09T07:29:28;7.44;86.27
69393;SHT31;56582;44.624;20.378;2023-04-09T07:31:53;7.61;85.82
69393;SHT31;56582;44.624;20.378;2023-04-09T07:34:19;7.68;85.84
69393;SHT31;56582;44.624;20.378;2023-04-09T07:36:44;7.84;85.48
69393;SHT31;56582;44.624;20.378;2023-04-09T07:39:10;7.58;85.65
69393;SHT31;56582;44.624;20.378;2023-04-09T07:41:35;7.74;85.68
69393;SHT31;56582;44.624;20.378;2023-04-09T07:44:01;7.55;85.34
69393;SHT31;56582;44.624;20.378;2023-04-09T07:46:28;7.82;84.90
69393;SHT31;56582;44.624;20.378;2023-04-09T07:48:53;7.95;84.77
69393;SHT31;56582;44.624;20.378;2023-04-09T07:51:18;7.75;84.77
69393;SHT31;56582;44.624;20.378;2023-04-09T07:53:44;8.23;84.85
69393;SHT31;56582;44.624;20.378;2023-04-09T07:56:10;8.47;84.91
69393;SHT31;56582;44.624;20.378;2023-04-09T07:58:35;8.42;83.88
69393;SHT31;56582;44.624;20.378;2023-04-09T08:01:02;8.53;83.20
69393;SHT31;56582;44.624;20.378;2023-04-09T08:03:28;8.63;83.45
69393;SHT31;56582;44.624;20.378;2023-04-09T08:05:53;8.54;83.36
69393;SHT31;56582;44.624;20.378;2023-04-09T08:08:18;8.42;83.39
69393;SHT31;56582;44.624;20.378;2023-04-09T08:10:44;8.68;82.90
69393;SHT31;56582;44.624;20.378;2023-04-09T08:13:09;8.98;83.40
69393;SHT31;56582;44.624;20.378;2023-04-09T08:15:35;9.01;83.17
69393;SHT31;56582;44.624;20.378;2023-04-09T08:18:00;9.38;82.59
69393;SHT31;56582;44.624;20.378;2023-04-09T08:20:28;9.39;80.84
69393;SHT31;56582;44.624;20.378;2023-04-09T08:22:54;9.97;82.63
69393;SHT31;56582;44.624;20.378;2023-04-09T08:25:21;10.02;80.11
69393;SHT31;56582;44.624;20.378;2023-04-09T08:27:46;10.00;81.01
69393;SHT31;56582;44.624;20.378;2023-04-09T08:30:12;10.07;82.00
69393;SHT31;56582;44.624;20.378;2023-04-09T08:32:37;10.63;83.13
69393;SHT31;56582;44.624;20.378;2023-04-09T08:35:03;10.44;79.41
69393;SHT31;56582;44.624;20.378;2023-04-09T08:37:28;10.32;79.19
69393;SHT31;56582;44.624;20.378;2023-04-09T08:39:54;10.60;79.26
69393;SHT31;56582;44.624;20.378;2023-04-09T08:42:20;10.41;78.89
69393;SHT31;56582;44.624;20.378;2023-04-09T08:44:46;10.45;80.16
69393;SHT31;56582;44.624;20.378;2023-04-09T08:47:12;9.94;79.25
69393;SHT31;56582;44.624;20.378;2023-04-09T08:49:38;9.90;81.00
69393;SHT31;56582;44.624;20.378;2023-04-09T08:52:05;9.50;80.90
69393;SHT31;56582;44.624;20.378;2023-04-09T08:54:30;9.60;81.51
69393;SHT31;56582;44.624;20.378;2023-04-09T08:56:56;9.71;80.35
69393;SHT31;56582;44.624;20.378;2023-04-09T08:59:21;9.90;80.40
69393;SHT31;56582;44.624;20.378;2023-04-09T09:01:47;9.53;80.98
69393;SHT31;56582;44.624;20.378;2023-04-09T09:04:18;9.71;82.45
69393;SHT31;56582;44.624;20.378;2023-04-09T09:06:44;9.91;81.86
69393;SHT31;56582;44.624;20.378;2023-04-09T09:09:14;9.88;81.13
69393;SHT31;56582;44.624;20.378;2023-04-09T09:11:43;9.35;81.42
69393;SHT31;56582;44.624;20.378;2023-04-09T09:14:11;9.50;82.40
69393;SHT31;56582;44.624;20.378;2023-04-09T09:16:43;9.80;80.68
69393;SHT31;56582;44.624;20.378;2023-04-09T09:19:27;9.95;80.90
69393;SHT31;56582;44.624;20.378;2023-04-09T09:22:19;10.31;79.63
69393;SHT31;56582;44.624;20.378;2023-04-09T09:24:48;10.10;80.13
69393;SHT31;56582;44.624;20.378;2023-04-09T09:27:35;10.27;80.50
69393;SHT31;56582;44.624;20.378;2023-04-09T09:30:05;10.07;80.45
69393;SHT31;56582;44.624;20.378;2023-04-09T09:32:32;9.64;80.31
69393;SHT31;56582;44.624;20.378;2023-04-09T09:35:27;9.87;80.20
69393;SHT31;56582;44.624;20.378;2023-04-09T09:38:02;10.00;81.02
69393;SHT31;56582;44.624;20.378;2023-04-09T09:40:30;10.15;80.04
69393;SHT31;56582;44.624;20.378;2023-04-09T09:42:56;10.44;78.27
69393;SHT31;56582;44.624;20.378;2023-04-09T09:45:23;10.04;78.25
69393;SHT31;56582;44.624;20.378;2023-04-09T09:47:48;10.12;79.44
69393;SHT31;56582;44.624;20.378;2023-04-09T09:50:14;10.21;76.88
69393;SHT31;56582;44.624;20.378;2023-04-09T09:52:44;10.45;78.46
69393;SHT31;56582;44.624;20.378;2023-04-09T09:55:12;10.69;77.43
69393;SHT31;56582;44.624;20.378;2023-04-09T09:57:41;10.83;75.91
69393;SHT31;56582;44.624;20.378;2023-04-09T10:00:11;10.70;75.38
69393;SHT31;56582;44.624;20.378;2023-04-09T10:02:43;10.77;74.04
69393;SHT31;56582;44.624;20.378;2023-04-09T10:05:13;10.97;73.42
69393;SHT31;56582;44.624;20.378;2023-04-09T10:07:39;11.28;73.08
69393;SHT31;56582;44.624;20.378;2023-04-09T10:10:06;11.23;71.88
69393;SHT31;56582;44.624;20.378;2023-04-09T10:12:32;10.99;70.56
69393;SHT31;56582;44.624;20.378;2023-04-09T10:14:58;11.30;67.85
69393;SHT31;56582;44.624;20.378;2023-04-09T10:17:29;11.18;71.19
69393;SHT31;56582;44.624;20.378;2023-04-09T10:20:04;11.20;71.55
69393;SHT31;56582;44.624;20.378;2023-04-09T10:22:32;11.35;71.47
69393;SHT31;56582;44.624;20.378;2023-04-09T10:24:59;11.17;69.39
69393;SHT31;56582;44.624;20.378;2023-04-09T10:27:25;11.04;70.67
69393;SHT31;56582;44.624;20.378;2023-04-09T10:29:52;11.04;71.98
69393;SHT31;56582;44.624;20.378;2023-04-09T10:32:19;11.28;71.90
69393;SHT31;56582;44.624;20.378;2023-04-09T10:34:45;11.50;70.23
69393;SHT31;56582;44.624;20.378;2023-04-09T10:37:25;11.31;69.37
69393;SHT31;56582;44.624;20.378;2023-04-09T10:39:51;11.52;68.36
69393;SHT31;56582;44.624;20.378;2023-04-09T10:42:21;11.45;68.05
69393;SHT31;56582;44.624;20.378;2023-04-09T10:45:08;11.58;68.18
69393;SHT31;56582;44.624;20.378;2023-04-09T10:47:37;11.37;69.21
69393;SHT31;56582;44.624;20.378;2023-04-09T10:52:44;11.28;68.75
69393;SHT31;56582;44.624;20.378;2023-04-09T10:55:29;11.18;68.78
69393;SHT31;56582;44.624;20.378;2023-04-09T10:57:57;11.24;69.45
69393;SHT31;56582;44.624;20.378;2023-04-09T11:00:22;11.16;70.14
69393;SHT31;56582;44.624;20.378;2023-04-09T11:03:23;11.17;71.20
69393;SHT31;56582;44.624;20.378;2023-04-09T11:06:03;11.00;69.56
69393;SHT31;56582;44.624;20.378;2023-04-09T11:08:33;11.71;68.89
69393;SHT31;56582;44.624;20.378;2023-04-09T11:11:00;12.06;66.21
69393;SHT31;56582;44.624;20.378;2023-04-09T11:13:27;12.38;66.25
69393;SHT31;56582;44.624;20.378;2023-04-09T11:15:54;12.22;65.12
69393;SHT31;56582;44.624;20.378;2023-04-09T11:18:21;11.75;65.96
69393;SHT31;56582;44.624;20.378;2023-04-09T11:20:47;11.48;67.46
69393;SHT31;56582;44.624;20.378;2023-04-09T11:23:14;11.59;65.98
69393;SHT31;56582;44.624;20.378;2023-04-09T11:25:40;11.45;66.77
69393;SHT31;56582;44.624;20.378;2023-04-09T11:28:05;11.46;66.52
69393;SHT31;56582;44.624;20.378;2023-04-09T11:30:33;11.76;66.72
69393;SHT31;56582;44.624;20.378;2023-04-09T11:32:59;11.46;66.94
69393;SHT31;56582;44.624;20.378;2023-04-09T11:35:24;11.62;68.11
69393;SHT31;56582;44.624;20.378;2023-04-09T11:37:50;11.65;64.27
69393;SHT31;56582;44.624;20.378;2023-04-09T11:40:19;11.79;64.03
69393;SHT31;56582;44.624;20.378;2023-04-09T11:42:45;11.78;64.16
69393;SHT31;56582;44.624;20.378;2023-04-09T11:45:11;11.69;64.66
69393;SHT31;56582;44.624;20.378;2023-04-09T11:47:40;11.21;66.02
69393;SHT31;56582;44.624;20.378;2023-04-09T11:50:08;11.50;65.94
69393;SHT31;56582;44.624;20.378;2023-04-09T11:52:34;11.46;66.67
69393;SHT31;56582;44.624;20.378;2023-04-09T11:55:07;11.69;65.80
69393;SHT31;56582;44.624;20.378;2023-04-09T11:57:41;11.50;66.58
69393;SHT31;56582;44.624;20.378;2023-04-09T12:00:09;11.54;67.55
69393;SHT31;56582;44.624;20.378;2023-04-09T12:02:41;11.61;69.16
69393;SHT31;56582;44.624;20.378;2023-04-09T12:05:08;11.82;67.16
69393;SHT31;56582;44.624;20.378;2023-04-09T12:07:36;11.81;66.99
69393;SHT31;56582;44.624;20.378;2023-04-09T12:10:09;11.79;67.69
69393;SHT31;56582;44.624;20.378;2023-04-09T12:12:45;11.57;67.73
69393;SHT31;56582;44.624;20.378;2023-04-09T12:15:21;11.75;68.70
69393;SHT31;56582;44.624;20.378;2023-04-09T12:17:48;11.69;68.64
69393;SHT31;56582;44.624;20.378;2023-04-09T12:20:13;11.75;69.17
69393;SHT31;56582;44.624;20.378;2023-04-09T12:22:50;11.78;67.95
69393;SHT31;56582;44.624;20.378;2023-04-09T12:25:16;11.76;67.05
69393;SHT31;56582;44.624;20.378;2023-04-09T12:27:41;11.82;67.32
69393;SHT31;56582;44.624;20.378;2023-04-09T12:30:07;11.87;65.98
69393;SHT31;56582;44.624;20.378;2023-04-09T12:32:32;12.00;65.59
69393;SHT31;56582;44.624;20.378;2023-04-09T12:34:58;11.93;65.90
69393;SHT31;56582;44.624;20.378;2023-04-09T12:37:23;11.87;65.61
69393;SHT31;56582;44.624;20.378;2023-04-09T12:39:48;11.85;65.33
69393;SHT31;56582;44.624;20.378;2023-04-09T12:42:14;11.76;66.33
69393;SHT31;56582;44.624;20.378;2023-04-09T12:44:40;11.69;65.56
69393;SHT31;56582;44.624;20.378;2023-04-09T12:47:05;11.48;66.40
69393;SHT31;56582;44.624;20.378;2023-04-09T12:49:32;11.32;68.29
69393;SHT31;56582;44.624;20.378;2023-04-09T12:51:57;11.41;68.93
69393;SHT31;56582;44.624;20.378;2023-04-09T12:54:22;11.59;67.32
69393;SHT31;56582;44.624;20.378;2023-04-09T12:56:48;11.39;67.92
69393;SHT31;56582;44.624;20.378;2023-04-09T12:59:14;11.41;67.80
69393;SHT31;56582;44.624;20.378;2023-04-09T13:01:39;11.35;68.15
69393;SHT31;56582;44.624;20.378;2023-04-09T13:04:05;11.45;69.26
69393;SHT31;56582;44.624;20.378;2023-04-09T13:06:30;11.46;68.57
69393;SHT31;56582;44.624;20.378;2023-04-09T13:08:56;11.64;67.58
69393;SHT31;56582;44.624;20.378;2023-04-09T13:11:21;11.69;68.70
69393;SHT31;56582;44.624;20.378;2023-04-09T13:13:46;11.68;68.22
69393;SHT31;56582;44.624;20.378;2023-04-09T13:16:12;11.74;68.11
69393;SHT31;56582;44.624;20.378;2023-04-09T13:18:37;11.75;68.15
69393;SHT31;56582;44.624;20.378;2023-04-09T13:21:03;11.61;68.24
69393;SHT31;56582;44.624;20.378;2023-04-09T13:23:28;11.85;68.24
69393;SHT31;56582;44.624;20.378;2023-04-09T13:25:54;11.89;69.08
69393;SHT31;56582;44.624;20.378;2023-04-09T13:28:19;11.90;70.99
69393;SHT31;56582;44.624;20.378;2023-04-09T13:30:46;12.06;71.35
69393;SHT31;56582;44.624;20.378;2023-04-09T13:33:12;12.19;71.57
69393;SHT31;56582;44.624;20.378;2023-04-09T13:35:37;12.16;70.06
69393;SHT31;56582;44.624;20.378;2023-04-09T13:38:03;12.26;71.54
69393;SHT31;56582;44.624;20.378;2023-04-09T13:40:28;12.43;70.44
69393;SHT31;56582;44.624;20.378;2023-04-09T13:42:53;13.09;74.25
69393;SHT31;56582;44.624;20.378;2023-04-09T13:45:19;13.18;68.65
69393;SHT31;56582;44.624;20.378;2023-04-09T13:47:47;13.16;71.03
69393;SHT31;56582;44.624;20.378;2023-04-09T13:50:13;12.81;68.27
69393;SHT31;56582;44.624;20.378;2023-04-09T13:52:39;12.50;68.35
69393;SHT31;56582;44.624;20.378;2023-04-09T13:55:05;12.19;68.24
69393;SHT31;56582;44.624;20.378;2023-04-09T13:57:30;11.92;69.91
69393;SHT31;56582;44.624;20.378;2023-04-09T13:59:56;12.02;70.88
69393;SHT31;56582;44.624;20.378;2023-04-09T14:02:21;12.12;69.11
69393;SHT31;56582;44.624;20.378;2023-04-09T14:04:47;12.05;69.95
69393;SHT31;56582;44.624;20.378;2023-04-09T14:07:13;12.13;71.07
69393;SHT31;56582;44.624;20.378;2023-04-09T14:09:38;12.00;69.07
69393;SHT31;56582;44.624;20.378;2023-04-09T14:12:04;11.97;71.18
69393;SHT31;56582;44.624;20.378;2023-04-09T14:14:29;12.14;69.43
69393;SHT31;56582;44.624;20.378;2023-04-09T14:16:55;12.10;67.75
69393;SHT31;56582;44.624;20.378;2023-04-09T14:19:21;12.13;68.57
69393;SHT31;56582;44.624;20.378;2023-04-09T14:21:47;12.19;69.18
69393;SHT31;56582;44.624;20.378;2023-04-09T14:24:13;11.86;69.02
69393;SHT31;56582;44.624;20.378;2023-04-09T14:26:38;11.86;69.25
69393;SHT31;56582;44.624;20.378;2023-04-09T14:29:04;11.83;70.25
69393;SHT31;56582;44.624;20.378;2023-04-09T14:31:30;12.12;69.22
69393;SHT31;56582;44.624;20.378;2023-04-09T14:33:55;12.20;68.47
69393;SHT31;56582;44.624;20.378;2023-04-09T14:36:21;11.85;69.72
69393;SHT31;56582;44.624;20.378;2023-04-09T14:38:46;11.89;71.28
69393;SHT31;56582;44.624;20.378;2023-04-09T14:41:13;11.62;71.41
69393;SHT31;56582;44.624;20.378;2023-04-09T14:43:38;11.59;70.83
69393;SHT31;56582;44.624;20.378;2023-04-09T14:46:04;11.72;71.19
69393;SHT31;56582;44.624;20.378;2023-04-09T14:48:30;11.78;72.06
69393;SHT31;56582;44.624;20.378;2023-04-09T14:50:56;11.76;71.59
69393;SHT31;56582;44.624;20.378;2023-04-09T14:53:21;11.74;72.15
69393;SHT31;56582;44.624;20.378;2023-04-09T14:55:46;11.54;73.28
69393;SHT31;56582;44.624;20.378;2023-04-09T14:58:12;11.71;73.56
69393;SHT31;56582;44.624;20.378;2023-04-09T15:00:37;11.61;74.15
69393;SHT31;56582;44.624;20.378;2023-04-09T15:03:03;11.64;74.67
69393;SHT31;56582;44.624;20.378;2023-04-09T15:05:28;11.61;73.96
69393;SHT31;56582;44.624;20.378;2023-04-09T15:07:54;11.27;74.48
69393;SHT31;56582;44.624;20.378;2023-04-09T15:10:20;11.08;74.39
69393;SHT31;56582;44.624;20.378;2023-04-09T15:12:45;11.16;74.34
69393;SHT31;56582;44.624;20.378;2023-04-09T15:15:11;11.03;74.45
69393;SHT31;56582;44.624;20.378;2023-04-09T15:17:38;11.08;74.83
69393;SHT31;56582;44.624;20.378;2023-04-09T15:20:04;10.99;74.39
69393;SHT31;56582;44.624;20.378;2023-04-09T15:22:30;11.13;75.24
69393;SHT31;56582;44.624;20.378;2023-04-09T15:24:56;11.04;73.67
69393;SHT31;56582;44.624;20.378;2023-04-09T15:27:21;11.14;72.29
69393;SHT31;56582;44.624;20.378;2023-04-09T15:29:46;10.80;73.51
69393;SHT31;56582;44.624;20.378;2023-04-09T15:32:12;10.90;72.66
69393;SHT31;56582;44.624;20.378;2023-04-09T15:34:37;10.89;72.61
69393;SHT31;56582;44.624;20.378;2023-04-09T15:37:03;10.80;71.31